Bookmark and Share
Track history (hours):
 

Atair J

Last reported at 2012-Sep-15 19:33 UTC. Time now 2014-Apr-20 16:05 UTC.
Position N 34°47' W 006°46'.
Warning: this ship's position is years out of date!

Length 132 m; draft 5.9 m.

Type: Ship. MMSI: 212029000.

NotesDate/timePositionNaut miles runAvg speedWind from/ knotsBaromVisibWave heightAir tempDewpointWater temp
2012-Sep-15 19:33N 34°47' W 006°46'1413.6
2012-Sep-15 18:32N 34°35' W 006°55'68 6.2
2012-Sep-15 07:33N 33°36' W 007°36'5 0.9
2012-Sep-15 02:29N 33°41' W 007°36'3 2.8
2012-Sep-15 01:32N 33°40' W 007°33'4 4.4
2012-Sep-15 00:32N 33°44' W 007°31'7010.1
2012-Sep-14 17:33N 34°45' W 006°48'49 9.8
2012-Sep-14 12:32N 35°27' W 006°17'2411.9
2012-Sep-14 10:30N 35°48' W 006°02'28513.6
2012-Sep-13 13:33N 37°35' W 000°32'10 9.6
2012-Sep-13 12:33N 37°45' W 000°29'7 7.0
2012-Sep-13 11:33N 37°52' W 000°27'1010.4
2012-Sep-13 10:35N 38°02' W 000°26'18 0.6
2012-Sep-12 06:26N 38°20' W 000°27'0 0.0
2012-Sep-12 05:31N 38°20' W 000°27'0 0.0
2012-Sep-12 04:31N 38°20' W 000°27'0 0.0
2012-Sep-12 02:33N 38°20' W 000°27'0 0.0
2012-Sep-12 01:30N 38°20' W 000°27'0 0.0
2012-Sep-12 00:23N 38°20' W 000°27'  
2012-Sep-08 19:29N 38°20' W 000°27'  

Dump ship's entire track history

sailing weather and tide predictions

Atair J — 5BWQ2 — position and weather